sensor_id;sensor_type;location;lat;lon;timestamp;P1;durP1;ratioP1;P2;durP2;ratioP2
14191;SDS011;7177;48.572;7.838;2023-05-07T00:01:04;9.10;;;7.63;;
14191;SDS011;7177;48.572;7.838;2023-05-07T00:03:31;7.23;;;6.50;;
14191;SDS011;7177;48.572;7.838;2023-05-07T00:05:57;9.13;;;5.67;;
14191;SDS011;7177;48.572;7.838;2023-05-07T00:08:23;7.10;;;5.97;;
14191;SDS011;7177;48.572;7.838;2023-05-07T00:10:48;6.70;;;6.07;;
14191;SDS011;7177;48.572;7.838;2023-05-07T00:13:14;7.37;;;6.57;;
14191;SDS011;7177;48.572;7.838;2023-05-07T00:15:39;6.30;;;5.70;;
14191;SDS011;7177;48.572;7.838;2023-05-07T00:18:05;6.70;;;6.10;;
14191;SDS011;7177;48.572;7.838;2023-05-07T00:20:31;6.60;;;5.43;;
14191;SDS011;7177;48.572;7.838;2023-05-07T00:22:56;8.17;;;6.80;;
14191;SDS011;7177;48.572;7.838;2023-05-07T00:25:22;7.93;;;6.50;;
14191;SDS011;7177;48.572;7.838;2023-05-07T00:27:47;8.57;;;6.80;;
14191;SDS011;7177;48.572;7.838;2023-05-07T00:30:13;6.20;;;5.60;;
14191;SDS011;7177;48.572;7.838;2023-05-07T00:32:38;7.20;;;6.40;;
14191;SDS011;7177;48.572;7.838;2023-05-07T00:35:04;8.80;;;6.37;;
14191;SDS011;7177;48.572;7.838;2023-05-07T00:37:30;8.83;;;6.67;;
14191;SDS011;7177;48.572;7.838;2023-05-07T00:39:56;6.80;;;5.97;;
14191;SDS011;7177;48.572;7.838;2023-05-07T00:42:22;7.57;;;5.20;;
14191;SDS011;7177;48.572;7.838;2023-05-07T00:44:48;5.87;;;5.23;;
14191;SDS011;7177;48.572;7.838;2023-05-07T00:47:15;8.27;;;6.07;;
14191;SDS011;7177;48.572;7.838;2023-05-07T00:49:41;7.50;;;6.03;;
14191;SDS011;7177;48.572;7.838;2023-05-07T00:52:12;7.27;;;6.17;;
14191;SDS011;7177;48.572;7.838;2023-05-07T00:54:40;7.63;;;6.10;;
14191;SDS011;7177;48.572;7.838;2023-05-07T00:57:06;11.00;;;6.77;;
14191;SDS011;7177;48.572;7.838;2023-05-07T00:59:33;6.40;;;5.80;;
14191;SDS011;7177;48.572;7.838;2023-05-07T01:01:59;10.73;;;6.70;;
14191;SDS011;7177;48.572;7.838;2023-05-07T01:04:25;9.10;;;7.40;;
14191;SDS011;7177;48.572;7.838;2023-05-07T01:06:51;15.10;;;7.93;;
14191;SDS011;7177;48.572;7.838;2023-05-07T01:09:20;8.30;;;7.33;;
14191;SDS011;7177;48.572;7.838;2023-05-07T01:11:47;9.17;;;6.53;;
14191;SDS011;7177;48.572;7.838;2023-05-07T01:14:14;7.23;;;6.47;;
14191;SDS011;7177;48.572;7.838;2023-05-07T01:16:39;6.03;;;5.43;;
14191;SDS011;7177;48.572;7.838;2023-05-07T01:19:06;9.87;;;7.43;;
14191;SDS011;7177;48.572;7.838;2023-05-07T01:21:33;12.37;;;8.20;;
14191;SDS011;7177;48.572;7.838;2023-05-07T01:23:59;9.07;;;6.77;;
14191;SDS011;7177;48.572;7.838;2023-05-07T01:26:25;7.07;;;6.10;;
14191;SDS011;7177;48.572;7.838;2023-05-07T01:28:51;7.27;;;6.57;;
14191;SDS011;7177;48.572;7.838;2023-05-07T01:31:16;7.83;;;6.50;;
14191;SDS011;7177;48.572;7.838;2023-05-07T01:33:43;9.33;;;6.80;;
14191;SDS011;7177;48.572;7.838;2023-05-07T01:36:10;10.70;;;7.27;;
14191;SDS011;7177;48.572;7.838;2023-05-07T01:38:37;8.53;;;6.43;;
14191;SDS011;7177;48.572;7.838;2023-05-07T01:41:04;6.70;;;5.70;;
14191;SDS011;7177;48.572;7.838;2023-05-07T01:43:30;9.47;;;7.53;;
14191;SDS011;7177;48.572;7.838;2023-05-07T01:45:55;10.97;;;7.80;;
14191;SDS011;7177;48.572;7.838;2023-05-07T01:48:22;11.00;;;7.97;;
14191;SDS011;7177;48.572;7.838;2023-05-07T01:50:49;9.93;;;8.67;;
14191;SDS011;7177;48.572;7.838;2023-05-07T01:53:16;14.37;;;9.50;;
14191;SDS011;7177;48.572;7.838;2023-05-07T01:55:41;13.03;;;10.07;;
14191;SDS011;7177;48.572;7.838;2023-05-07T01:58:07;15.60;;;8.60;;
14191;SDS011;7177;48.572;7.838;2023-05-07T02:00:32;8.00;;;7.20;;
14191;SDS011;7177;48.572;7.838;2023-05-07T02:02:59;9.07;;;7.23;;
14191;SDS011;7177;48.572;7.838;2023-05-07T02:05:24;6.40;;;5.80;;
14191;SDS011;7177;48.572;7.838;2023-05-07T02:07:50;8.07;;;6.63;;
14191;SDS011;7177;48.572;7.838;2023-05-07T02:10:15;7.13;;;6.27;;
14191;SDS011;7177;48.572;7.838;2023-05-07T02:12:41;7.00;;;6.30;;
14191;SDS011;7177;48.572;7.838;2023-05-07T02:15:07;6.97;;;6.27;;
14191;SDS011;7177;48.572;7.838;2023-05-07T02:17:33;8.00;;;7.17;;
14191;SDS011;7177;48.572;7.838;2023-05-07T02:19:59;7.30;;;6.30;;
14191;SDS011;7177;48.572;7.838;2023-05-07T02:22:24;6.30;;;5.80;;
14191;SDS011;7177;48.572;7.838;2023-05-07T02:24:50;11.83;;;8.50;;
14191;SDS011;7177;48.572;7.838;2023-05-07T02:27:16;9.13;;;8.00;;
14191;SDS011;7177;48.572;7.838;2023-05-07T02:29:41;8.47;;;7.57;;
14191;SDS011;7177;48.572;7.838;2023-05-07T02:32:07;8.23;;;7.13;;
14191;SDS011;7177;48.572;7.838;2023-05-07T02:34:32;6.67;;;6.03;;
14191;SDS011;7177;48.572;7.838;2023-05-07T02:36:58;8.13;;;6.77;;
14191;SDS011;7177;48.572;7.838;2023-05-07T02:39:23;7.40;;;6.23;;
14191;SDS011;7177;48.572;7.838;2023-05-07T02:41:49;10.77;;;6.93;;
14191;SDS011;7177;48.572;7.838;2023-05-07T02:44:15;8.87;;;7.97;;
14191;SDS011;7177;48.572;7.838;2023-05-07T02:46:40;8.20;;;7.30;;
14191;SDS011;7177;48.572;7.838;2023-05-07T02:49:06;8.30;;;7.07;;
14191;SDS011;7177;48.572;7.838;2023-05-07T02:51:31;8.00;;;6.83;;
14191;SDS011;7177;48.572;7.838;2023-05-07T02:53:57;10.93;;;7.87;;
14191;SDS011;7177;48.572;7.838;2023-05-07T02:56:22;8.83;;;7.90;;
14191;SDS011;7177;48.572;7.838;2023-05-07T02:58:48;8.67;;;7.77;;
14191;SDS011;7177;48.572;7.838;2023-05-07T03:01:13;9.77;;;7.43;;
14191;SDS011;7177;48.572;7.838;2023-05-07T03:03:39;7.20;;;6.50;;
14191;SDS011;7177;48.572;7.838;2023-05-07T03:06:05;7.23;;;6.53;;
14191;SDS011;7177;48.572;7.838;2023-05-07T03:08:31;8.47;;;5.90;;
14191;SDS011;7177;48.572;7.838;2023-05-07T03:10:57;9.37;;;6.83;;
14191;SDS011;7177;48.572;7.838;2023-05-07T03:13:23;11.70;;;8.27;;
14191;SDS011;7177;48.572;7.838;2023-05-07T03:15:48;8.07;;;7.00;;
14191;SDS011;7177;48.572;7.838;2023-05-07T03:18:14;11.60;;;7.93;;
14191;SDS011;7177;48.572;7.838;2023-05-07T03:20:39;11.00;;;7.77;;
14191;SDS011;7177;48.572;7.838;2023-05-07T03:23:05;8.07;;;7.17;;
14191;SDS011;7177;48.572;7.838;2023-05-07T03:25:31;10.40;;;7.83;;
14191;SDS011;7177;48.572;7.838;2023-05-07T03:27:57;9.90;;;6.40;;
14191;SDS011;7177;48.572;7.838;2023-05-07T03:30:23;7.10;;;6.40;;
14191;SDS011;7177;48.572;7.838;2023-05-07T03:32:48;8.33;;;6.03;;
14191;SDS011;7177;48.572;7.838;2023-05-07T03:35:14;8.20;;;7.00;;
14191;SDS011;7177;48.572;7.838;2023-05-07T03:37:40;8.30;;;7.47;;
14191;SDS011;7177;48.572;7.838;2023-05-07T03:40:05;7.87;;;6.83;;
14191;SDS011;7177;48.572;7.838;2023-05-07T03:42:32;7.03;;;6.43;;
14191;SDS011;7177;48.572;7.838;2023-05-07T03:44:58;7.33;;;6.63;;
14191;SDS011;7177;48.572;7.838;2023-05-07T03:47:23;9.93;;;6.93;;
14191;SDS011;7177;48.572;7.838;2023-05-07T03:49:49;7.97;;;5.87;;
14191;SDS011;7177;48.572;7.838;2023-05-07T03:52:17;6.13;;;5.60;;
14191;SDS011;7177;48.572;7.838;2023-05-07T03:54:47;5.83;;;5.30;;
14191;SDS011;7177;48.572;7.838;2023-05-07T03:57:13;11.33;;;8.50;;
14191;SDS011;7177;48.572;7.838;2023-05-07T03:59:38;10.70;;;8.67;;
14191;SDS011;7177;48.572;7.838;2023-05-07T04:02:04;8.50;;;7.67;;
14191;SDS011;7177;48.572;7.838;2023-05-07T04:04:29;8.07;;;7.27;;
14191;SDS011;7177;48.572;7.838;2023-05-07T04:06:57;10.97;;;8.07;;
14191;SDS011;7177;48.572;7.838;2023-05-07T04:09:24;9.07;;;7.57;;
14191;SDS011;7177;48.572;7.838;2023-05-07T04:11:50;8.33;;;7.53;;
14191;SDS011;7177;48.572;7.838;2023-05-07T04:14:15;8.87;;;6.47;;
14191;SDS011;7177;48.572;7.838;2023-05-07T04:16:41;6.53;;;5.93;;
14191;SDS011;7177;48.572;7.838;2023-05-07T04:19:06;6.20;;;5.60;;
14191;SDS011;7177;48.572;7.838;2023-05-07T04:21:32;11.17;;;8.37;;
14191;SDS011;7177;48.572;7.838;2023-05-07T04:23:58;9.90;;;8.90;;
14191;SDS011;7177;48.572;7.838;2023-05-07T04:26:23;9.67;;;7.67;;
14191;SDS011;7177;48.572;7.838;2023-05-07T04:28:49;8.10;;;7.30;;
14191;SDS011;7177;48.572;7.838;2023-05-07T04:31:14;11.80;;;8.63;;
14191;SDS011;7177;48.572;7.838;2023-05-07T04:33:40;8.37;;;7.47;;
14191;SDS011;7177;48.572;7.838;2023-05-07T04:36:06;8.97;;;7.97;;
14191;SDS011;7177;48.572;7.838;2023-05-07T04:38:32;9.10;;;7.90;;
14191;SDS011;7177;48.572;7.838;2023-05-07T04:41:02;12.60;;;8.40;;
14191;SDS011;7177;48.572;7.838;2023-05-07T04:43:28;10.03;;;7.77;;
14191;SDS011;7177;48.572;7.838;2023-05-07T04:45:53;8.83;;;7.60;;
14191;SDS011;7177;48.572;7.838;2023-05-07T04:48:19;9.27;;;8.37;;
14191;SDS011;7177;48.572;7.838;2023-05-07T04:50:48;7.53;;;6.70;;
14191;SDS011;7177;48.572;7.838;2023-05-07T04:53:14;7.10;;;6.40;;
14191;SDS011;7177;48.572;7.838;2023-05-07T04:55:40;9.03;;;7.57;;
14191;SDS011;7177;48.572;7.838;2023-05-07T04:58:05;13.20;;;7.87;;
14191;SDS011;7177;48.572;7.838;2023-05-07T05:00:31;10.13;;;9.03;;
14191;SDS011;7177;48.572;7.838;2023-05-07T05:02:56;10.13;;;9.03;;
14191;SDS011;7177;48.572;7.838;2023-05-07T05:05:22;9.47;;;8.47;;
14191;SDS011;7177;48.572;7.838;2023-05-07T05:07:47;8.57;;;7.67;;
14191;SDS011;7177;48.572;7.838;2023-05-07T05:10:13;8.90;;;6.93;;
14191;SDS011;7177;48.572;7.838;2023-05-07T05:12:38;9.37;;;7.70;;
14191;SDS011;7177;48.572;7.838;2023-05-07T05:15:04;10.20;;;7.80;;
14191;SDS011;7177;48.572;7.838;2023-05-07T05:17:30;9.40;;;7.47;;
14191;SDS011;7177;48.572;7.838;2023-05-07T05:19:56;6.60;;;6.00;;
14191;SDS011;7177;48.572;7.838;2023-05-07T05:22:21;6.97;;;6.27;;
14191;SDS011;7177;48.572;7.838;2023-05-07T05:24:47;8.10;;;5.67;;
14191;SDS011;7177;48.572;7.838;2023-05-07T05:27:12;5.17;;;4.67;;
14191;SDS011;7177;48.572;7.838;2023-05-07T05:29:38;5.83;;;4.70;;
14191;SDS011;7177;48.572;7.838;2023-05-07T05:32:03;5.13;;;4.33;;
14191;SDS011;7177;48.572;7.838;2023-05-07T05:34:29;7.57;;;4.80;;
14191;SDS011;7177;48.572;7.838;2023-05-07T05:36:54;7.70;;;4.73;;
14191;SDS011;7177;48.572;7.838;2023-05-07T05:39:20;4.60;;;4.20;;
14191;SDS011;7177;48.572;7.838;2023-05-07T05:41:46;5.93;;;3.90;;
14191;SDS011;7177;48.572;7.838;2023-05-07T05:44:12;4.67;;;4.07;;
14191;SDS011;7177;48.572;7.838;2023-05-07T05:46:37;6.50;;;4.37;;
14191;SDS011;7177;48.572;7.838;2023-05-07T05:49:03;6.83;;;4.03;;
14191;SDS011;7177;48.572;7.838;2023-05-07T05:51:28;5.43;;;3.93;;
14191;SDS011;7177;48.572;7.838;2023-05-07T05:53:53;6.30;;;4.40;;
14191;SDS011;7177;48.572;7.838;2023-05-07T05:56:19;7.10;;;4.40;;
14191;SDS011;7177;48.572;7.838;2023-05-07T05:58:46;7.53;;;5.27;;
14191;SDS011;7177;48.572;7.838;2023-05-07T06:01:11;6.60;;;4.60;;
14191;SDS011;7177;48.572;7.838;2023-05-07T06:03:37;8.33;;;5.30;;
14191;SDS011;7177;48.572;7.838;2023-05-07T06:06:02;7.43;;;4.80;;
14191;SDS011;7177;48.572;7.838;2023-05-07T06:08:31;5.17;;;4.63;;
14191;SDS011;7177;48.572;7.838;2023-05-07T06:10:56;5.60;;;5.10;;
14191;SDS011;7177;48.572;7.838;2023-05-07T06:13:23;9.17;;;5.20;;
14191;SDS011;7177;48.572;7.838;2023-05-07T06:15:49;11.37;;;5.73;;
14191;SDS011;7177;48.572;7.838;2023-05-07T06:18:14;7.20;;;5.47;;
14191;SDS011;7177;48.572;7.838;2023-05-07T06:20:40;6.27;;;5.67;;
14191;SDS011;7177;48.572;7.838;2023-05-07T06:23:05;7.07;;;6.40;;
14191;SDS011;7177;48.572;7.838;2023-05-07T06:25:31;9.23;;;6.97;;
14191;SDS011;7177;48.572;7.838;2023-05-07T06:27:56;11.87;;;6.87;;
14191;SDS011;7177;48.572;7.838;2023-05-07T06:30:22;6.93;;;6.23;;
14191;SDS011;7177;48.572;7.838;2023-05-07T06:32:48;8.23;;;6.20;;
14191;SDS011;7177;48.572;7.838;2023-05-07T06:35:13;9.80;;;7.37;;
14191;SDS011;7177;48.572;7.838;2023-05-07T06:37:38;6.63;;;5.93;;
14191;SDS011;7177;48.572;7.838;2023-05-07T06:40:07;8.97;;;7.50;;
14191;SDS011;7177;48.572;7.838;2023-05-07T06:42:33;7.97;;;7.17;;
14191;SDS011;7177;48.572;7.838;2023-05-07T06:44:59;8.03;;;6.97;;
14191;SDS011;7177;48.572;7.838;2023-05-07T06:47:24;9.00;;;7.30;;
14191;SDS011;7177;48.572;7.838;2023-05-07T06:49:50;10.93;;;7.40;;
14191;SDS011;7177;48.572;7.838;2023-05-07T06:52:15;8.43;;;7.13;;
14191;SDS011;7177;48.572;7.838;2023-05-07T06:54:41;11.93;;;7.67;;
14191;SDS011;7177;48.572;7.838;2023-05-07T06:57:06;12.63;;;6.93;;
14191;SDS011;7177;48.572;7.838;2023-05-07T06:59:32;9.70;;;7.10;;
14191;SDS011;7177;48.572;7.838;2023-05-07T07:01:57;10.53;;;7.20;;
14191;SDS011;7177;48.572;7.838;2023-05-07T07:04:23;7.87;;;7.03;;
14191;SDS011;7177;48.572;7.838;2023-05-07T07:06:49;12.73;;;7.47;;
14191;SDS011;7177;48.572;7.838;2023-05-07T07:09:16;8.50;;;6.60;;
14191;SDS011;7177;48.572;7.838;2023-05-07T07:11:42;10.40;;;7.67;;
14191;SDS011;7177;48.572;7.838;2023-05-07T07:14:07;12.90;;;7.67;;
14191;SDS011;7177;48.572;7.838;2023-05-07T07:16:33;10.03;;;7.83;;
14191;SDS011;7177;48.572;7.838;2023-05-07T07:18:58;9.07;;;7.40;;
14191;SDS011;7177;48.572;7.838;2023-05-07T07:21:24;11.87;;;8.50;;
14191;SDS011;7177;48.572;7.838;2023-05-07T07:23:49;13.07;;;7.70;;
14191;SDS011;7177;48.572;7.838;2023-05-07T07:26:15;13.07;;;8.47;;
14191;SDS011;7177;48.572;7.838;2023-05-07T07:28:46;13.93;;;8.13;;
14191;SDS011;7177;48.572;7.838;2023-05-07T07:31:12;8.07;;;6.97;;
14191;SDS011;7177;48.572;7.838;2023-05-07T07:33:37;9.20;;;7.87;;
14191;SDS011;7177;48.572;7.838;2023-05-07T07:36:04;8.03;;;7.00;;
14191;SDS011;7177;48.572;7.838;2023-05-07T07:38:30;8.40;;;7.37;;
14191;SDS011;7177;48.572;7.838;2023-05-07T07:40:56;7.83;;;6.63;;
14191;SDS011;7177;48.572;7.838;2023-05-07T07:43:21;10.53;;;7.00;;
14191;SDS011;7177;48.572;7.838;2023-05-07T07:45:47;8.47;;;7.57;;
14191;SDS011;7177;48.572;7.838;2023-05-07T07:48:12;9.57;;;7.13;;
14191;SDS011;7177;48.572;7.838;2023-05-07T07:50:39;7.90;;;6.53;;
14191;SDS011;7177;48.572;7.838;2023-05-07T07:53:04;9.97;;;7.43;;
14191;SDS011;7177;48.572;7.838;2023-05-07T07:55:30;9.03;;;7.03;;
14191;SDS011;7177;48.572;7.838;2023-05-07T07:57:57;11.30;;;7.67;;
14191;SDS011;7177;48.572;7.838;2023-05-07T08:00:22;9.93;;;8.00;;
14191;SDS011;7177;48.572;7.838;2023-05-07T08:02:48;10.20;;;8.30;;
14191;SDS011;7177;48.572;7.838;2023-05-07T08:05:13;14.40;;;7.57;;
14191;SDS011;7177;48.572;7.838;2023-05-07T08:07:40;9.73;;;8.33;;
14191;SDS011;7177;48.572;7.838;2023-05-07T08:10:05;11.37;;;8.60;;
14191;SDS011;7177;48.572;7.838;2023-05-07T08:12:31;11.63;;;8.53;;
14191;SDS011;7177;48.572;7.838;2023-05-07T08:14:57;12.70;;;7.77;;
14191;SDS011;7177;48.572;7.838;2023-05-07T08:17:22;12.43;;;8.70;;
14191;SDS011;7177;48.572;7.838;2023-05-07T08:19:48;10.27;;;8.33;;
14191;SDS011;7177;48.572;7.838;2023-05-07T08:22:13;9.37;;;8.03;;
14191;SDS011;7177;48.572;7.838;2023-05-07T08:24:39;11.60;;;7.90;;
14191;SDS011;7177;48.572;7.838;2023-05-07T08:27:05;17.80;;;11.70;;
14191;SDS011;7177;48.572;7.838;2023-05-07T08:29:30;12.63;;;7.37;;
14191;SDS011;7177;48.572;7.838;2023-05-07T08:31:56;8.63;;;7.57;;
14191;SDS011;7177;48.572;7.838;2023-05-07T08:34:22;7.70;;;6.87;;
14191;SDS011;7177;48.572;7.838;2023-05-07T08:36:47;9.40;;;7.73;;
14191;SDS011;7177;48.572;7.838;2023-05-07T08:39:13;12.83;;;7.53;;
14191;SDS011;7177;48.572;7.838;2023-05-07T08:41:44;7.83;;;6.97;;
14191;SDS011;7177;48.572;7.838;2023-05-07T08:44:11;8.70;;;7.67;;
14191;SDS011;7177;48.572;7.838;2023-05-07T08:46:39;8.63;;;7.00;;
14191;SDS011;7177;48.572;7.838;2023-05-07T08:49:06;7.30;;;6.57;;
14191;SDS011;7177;48.572;7.838;2023-05-07T08:51:32;7.47;;;5.83;;
14191;SDS011;7177;48.572;7.838;2023-05-07T08:53:58;10.80;;;6.90;;
14191;SDS011;7177;48.572;7.838;2023-05-07T08:56:26;10.37;;;7.00;;
14191;SDS011;7177;48.572;7.838;2023-05-07T08:58:51;11.63;;;5.83;;
14191;SDS011;7177;48.572;7.838;2023-05-07T09:01:21;7.60;;;5.80;;
14191;SDS011;7177;48.572;7.838;2023-05-07T09:03:47;6.70;;;5.83;;
14191;SDS011;7177;48.572;7.838;2023-05-07T09:06:13;7.40;;;6.17;;
14191;SDS011;7177;48.572;7.838;2023-05-07T09:08:38;6.53;;;5.70;;
14191;SDS011;7177;48.572;7.838;2023-05-07T09:11:04;5.80;;;5.20;;
14191;SDS011;7177;48.572;7.838;2023-05-07T09:13:30;7.47;;;5.80;;
14191;SDS011;7177;48.572;7.838;2023-05-07T09:15:56;9.37;;;5.43;;
14191;SDS011;7177;48.572;7.838;2023-05-07T09:18:23;8.03;;;6.23;;
14191;SDS011;7177;48.572;7.838;2023-05-07T09:20:49;7.23;;;6.00;;
14191;SDS011;7177;48.572;7.838;2023-05-07T09:23:15;12.10;;;6.67;;
14191;SDS011;7177;48.572;7.838;2023-05-07T09:25:41;7.27;;;6.00;;
14191;SDS011;7177;48.572;7.838;2023-05-07T09:28:06;8.10;;;5.97;;
14191;SDS011;7177;48.572;7.838;2023-05-07T09:30:33;6.27;;;5.67;;
14191;SDS011;7177;48.572;7.838;2023-05-07T09:33:00;9.60;;;6.10;;
14191;SDS011;7177;48.572;7.838;2023-05-07T09:35:26;7.63;;;5.50;;
14191;SDS011;7177;48.572;7.838;2023-05-07T09:37:56;11.27;;;5.77;;
14191;SDS011;7177;48.572;7.838;2023-05-07T09:40:24;7.20;;;5.67;;
14191;SDS011;7177;48.572;7.838;2023-05-07T09:42:51;9.43;;;5.33;;
14191;SDS011;7177;48.572;7.838;2023-05-07T09:45:21;6.57;;;5.60;;
14191;SDS011;7177;48.572;7.838;2023-05-07T09:47:48;7.87;;;4.90;;
14191;SDS011;7177;48.572;7.838;2023-05-07T09:50:18;7.73;;;4.73;;
14191;SDS011;7177;48.572;7.838;2023-05-07T09:52:46;6.33;;;5.20;;
14191;SDS011;7177;48.572;7.838;2023-05-07T09:55:12;7.90;;;5.37;;
14191;SDS011;7177;48.572;7.838;2023-05-07T09:57:38;7.13;;;5.33;;
14191;SDS011;7177;48.572;7.838;2023-05-07T10:00:05;6.73;;;5.17;;
14191;SDS011;7177;48.572;7.838;2023-05-07T10:02:32;6.17;;;4.93;;
14191;SDS011;7177;48.572;7.838;2023-05-07T10:05:00;7.07;;;5.50;;
14191;SDS011;7177;48.572;7.838;2023-05-07T10:07:27;8.03;;;5.50;;
14191;SDS011;7177;48.572;7.838;2023-05-07T10:09:53;10.67;;;5.57;;
14191;SDS011;7177;48.572;7.838;2023-05-07T10:12:19;9.97;;;5.80;;
14191;SDS011;7177;48.572;7.838;2023-05-07T10:14:45;10.10;;;5.80;;
14191;SDS011;7177;48.572;7.838;2023-05-07T10:17:13;9.23;;;5.47;;
14191;SDS011;7177;48.572;7.838;2023-05-07T10:19:41;9.03;;;6.13;;
14191;SDS011;7177;48.572;7.838;2023-05-07T10:22:09;5.93;;;5.20;;
14191;SDS011;7177;48.572;7.838;2023-05-07T10:24:36;6.50;;;5.17;;
14191;SDS011;7177;48.572;7.838;2023-05-07T10:27:03;10.73;;;4.90;;
14191;SDS011;7177;48.572;7.838;2023-05-07T10:29:34;7.80;;;4.73;;
14191;SDS011;7177;48.572;7.838;2023-05-07T10:32:51;6.23;;;5.10;;
14191;SDS011;7177;48.572;7.838;2023-05-07T10:35:00;8.27;;;5.70;;
14191;SDS011;7177;48.572;7.838;2023-05-07T10:37:29;7.63;;;5.80;;
14191;SDS011;7177;48.572;7.838;2023-05-07T10:39:55;8.17;;;6.33;;
14191;SDS011;7177;48.572;7.838;2023-05-07T10:42:22;8.60;;;5.40;;
14191;SDS011;7177;48.572;7.838;2023-05-07T10:44:48;7.87;;;6.60;;
14191;SDS011;7177;48.572;7.838;2023-05-07T10:47:14;7.63;;;6.70;;
14191;SDS011;7177;48.572;7.838;2023-05-07T10:54:41;7.20;;;6.00;;
14191;SDS011;7177;48.572;7.838;2023-05-07T11:00:03;7.40;;;6.17;;
14191;SDS011;7177;48.572;7.838;2023-05-07T11:03:04;8.43;;;6.00;;
14191;SDS011;7177;48.572;7.838;2023-05-07T11:05:30;9.00;;;4.70;;
14191;SDS011;7177;48.572;7.838;2023-05-07T11:07:57;4.37;;;3.83;;
14191;SDS011;7177;48.572;7.838;2023-05-07T11:13:14;6.33;;;3.57;;
14191;SDS011;7177;48.572;7.838;2023-05-07T11:15:44;4.93;;;3.20;;
14191;SDS011;7177;48.572;7.838;2023-05-07T11:18:12;6.53;;;3.50;;
14191;SDS011;7177;48.572;7.838;2023-05-07T11:26:03;6.47;;;3.40;;
14191;SDS011;7177;48.572;7.838;2023-05-07T11:28:29;3.77;;;3.00;;
14191;SDS011;7177;48.572;7.838;2023-05-07T11:30:56;9.17;;;2.90;;
14191;SDS011;7177;48.572;7.838;2023-05-07T11:33:23;4.13;;;3.10;;
14191;SDS011;7177;48.572;7.838;2023-05-07T11:35:50;8.00;;;3.47;;
14191;SDS011;7177;48.572;7.838;2023-05-07T11:38:18;5.77;;;4.03;;
14191;SDS011;7177;48.572;7.838;2023-05-07T11:40:50;7.23;;;3.90;;
14191;SDS011;7177;48.572;7.838;2023-05-07T11:43:20;7.60;;;4.07;;
14191;SDS011;7177;48.572;7.838;2023-05-07T11:45:47;6.50;;;4.30;;
14191;SDS011;7177;48.572;7.838;2023-05-07T11:48:14;6.80;;;4.20;;
14191;SDS011;7177;48.572;7.838;2023-05-07T11:50:53;4.57;;;3.80;;
14191;SDS011;7177;48.572;7.838;2023-05-07T11:53:25;4.47;;;3.33;;
14191;SDS011;7177;48.572;7.838;2023-05-07T11:55:52;4.17;;;3.40;;
14191;SDS011;7177;48.572;7.838;2023-05-07T11:58:20;4.27;;;3.30;;
14191;SDS011;7177;48.572;7.838;2023-05-07T12:00:48;3.63;;;3.20;;
14191;SDS011;7177;48.572;7.838;2023-05-07T12:03:14;7.83;;;3.67;;
14191;SDS011;7177;48.572;7.838;2023-05-07T12:05:40;4.63;;;3.63;;
14191;SDS011;7177;48.572;7.838;2023-05-07T12:08:06;3.93;;;3.50;;
14191;SDS011;7177;48.572;7.838;2023-05-07T12:10:32;4.13;;;3.70;;
14191;SDS011;7177;48.572;7.838;2023-05-07T12:12:58;6.20;;;3.57;;
14191;SDS011;7177;48.572;7.838;2023-05-07T12:15:23;6.10;;;4.20;;
14191;SDS011;7177;48.572;7.838;2023-05-07T12:17:49;10.03;;;3.97;;
14191;SDS011;7177;48.572;7.838;2023-05-07T12:20:15;4.33;;;3.20;;
14191;SDS011;7177;48.572;7.838;2023-05-07T12:22:41;4.30;;;3.53;;
14191;SDS011;7177;48.572;7.838;2023-05-07T12:25:08;4.03;;;3.30;;
14191;SDS011;7177;48.572;7.838;2023-05-07T12:27:36;6.97;;;4.30;;
14191;SDS011;7177;48.572;7.838;2023-05-07T12:30:03;4.80;;;3.40;;
14191;SDS011;7177;48.572;7.838;2023-05-07T12:32:28;6.60;;;4.10;;
14191;SDS011;7177;48.572;7.838;2023-05-07T12:34:54;3.67;;;3.20;;
14191;SDS011;7177;48.572;7.838;2023-05-07T12:37:23;9.97;;;7.77;;
14191;SDS011;7177;48.572;7.838;2023-05-07T12:40:03;6.67;;;3.80;;
14191;SDS011;7177;48.572;7.838;2023-05-07T12:42:38;5.63;;;3.90;;
14191;SDS011;7177;48.572;7.838;2023-05-07T12:45:11;7.73;;;4.27;;
14191;SDS011;7177;48.572;7.838;2023-05-07T12:47:43;6.27;;;4.27;;
14191;SDS011;7177;48.572;7.838;2023-05-07T12:50:09;5.87;;;3.27;;
14191;SDS011;7177;48.572;7.838;2023-05-07T12:52:36;3.93;;;3.60;;
14191;SDS011;7177;48.572;7.838;2023-05-07T12:55:05;4.73;;;3.60;;
14191;SDS011;7177;48.572;7.838;2023-05-07T12:57:37;3.87;;;2.80;;
14191;SDS011;7177;48.572;7.838;2023-05-07T13:00:07;4.37;;;3.33;;
14191;SDS011;7177;48.572;7.838;2023-05-07T13:02:34;3.87;;;3.30;;
14191;SDS011;7177;48.572;7.838;2023-05-07T13:05:02;5.13;;;3.13;;
14191;SDS011;7177;48.572;7.838;2023-05-07T13:07:28;6.07;;;3.50;;
14191;SDS011;7177;48.572;7.838;2023-05-07T13:09:54;4.97;;;4.37;;
14191;SDS011;7177;48.572;7.838;2023-05-07T13:12:20;6.57;;;4.27;;
14191;SDS011;7177;48.572;7.838;2023-05-07T13:14:45;4.27;;;3.87;;
14191;SDS011;7177;48.572;7.838;2023-05-07T13:17:11;6.50;;;4.00;;
14191;SDS011;7177;48.572;7.838;2023-05-07T13:19:36;7.37;;;4.20;;
14191;SDS011;7177;48.572;7.838;2023-05-07T13:22:02;5.97;;;4.17;;
14191;SDS011;7177;48.572;7.838;2023-05-07T13:24:28;8.87;;;3.93;;
14191;SDS011;7177;48.572;7.838;2023-05-07T13:26:53;5.47;;;3.30;;
14191;SDS011;7177;48.572;7.838;2023-05-07T13:29:19;6.20;;;4.30;;
14191;SDS011;7177;48.572;7.838;2023-05-07T13:31:50;3.97;;;3.30;;
14191;SDS011;7177;48.572;7.838;2023-05-07T13:34:15;4.93;;;3.40;;
14191;SDS011;7177;48.572;7.838;2023-05-07T13:36:41;6.13;;;3.73;;
14191;SDS011;7177;48.572;7.838;2023-05-07T13:39:06;7.10;;;3.77;;
14191;SDS011;7177;48.572;7.838;2023-05-07T13:41:32;4.00;;;3.60;;
14191;SDS011;7177;48.572;7.838;2023-05-07T13:43:58;6.43;;;4.93;;
14191;SDS011;7177;48.572;7.838;2023-05-07T13:46:23;4.77;;;3.60;;
14191;SDS011;7177;48.572;7.838;2023-05-07T13:48:49;5.23;;;4.10;;
14191;SDS011;7177;48.572;7.838;2023-05-07T13:51:16;6.30;;;3.97;;
14191;SDS011;7177;48.572;7.838;2023-05-07T13:53:41;5.37;;;3.97;;
14191;SDS011;7177;48.572;7.838;2023-05-07T13:56:07;4.27;;;3.63;;
14191;SDS011;7177;48.572;7.838;2023-05-07T13:58:33;3.77;;;3.23;;
14191;SDS011;7177;48.572;7.838;2023-05-07T14:00:58;5.47;;;3.40;;
14191;SDS011;7177;48.572;7.838;2023-05-07T14:03:24;3.30;;;2.77;;
14191;SDS011;7177;48.572;7.838;2023-05-07T14:05:49;6.30;;;3.20;;
14191;SDS011;7177;48.572;7.838;2023-05-07T14:08:15;3.13;;;2.80;;
14191;SDS011;7177;48.572;7.838;2023-05-07T14:10:42;3.33;;;2.83;;
14191;SDS011;7177;48.572;7.838;2023-05-07T14:13:08;5.57;;;3.23;;
14191;SDS011;7177;48.572;7.838;2023-05-07T14:15:33;3.30;;;2.93;;
14191;SDS011;7177;48.572;7.838;2023-05-07T14:17:59;3.53;;;2.90;;
14191;SDS011;7177;48.572;7.838;2023-05-07T14:20:25;4.10;;;3.50;;
14191;SDS011;7177;48.572;7.838;2023-05-07T14:22:51;11.67;;;3.50;;
14191;SDS011;7177;48.572;7.838;2023-05-07T14:25:16;5.20;;;3.43;;
14191;SDS011;7177;48.572;7.838;2023-05-07T14:27:42;7.00;;;3.73;;
14191;SDS011;7177;48.572;7.838;2023-05-07T14:30:08;3.73;;;3.43;;
14191;SDS011;7177;48.572;7.838;2023-05-07T14:32:33;5.17;;;3.50;;
14191;SDS011;7177;48.572;7.838;2023-05-07T14:34:59;5.93;;;3.67;;
14191;SDS011;7177;48.572;7.838;2023-05-07T14:37:25;5.30;;;3.30;;
14191;SDS011;7177;48.572;7.838;2023-05-07T14:39:50;6.17;;;3.97;;
14191;SDS011;7177;48.572;7.838;2023-05-07T14:42:16;3.83;;;2.90;;
14191;SDS011;7177;48.572;7.838;2023-05-07T14:44:42;4.67;;;3.53;;
14191;SDS011;7177;48.572;7.838;2023-05-07T14:47:07;4.10;;;3.67;;
14191;SDS011;7177;48.572;7.838;2023-05-07T14:49:33;5.40;;;3.37;;
14191;SDS011;7177;48.572;7.838;2023-05-07T14:51:59;4.10;;;3.20;;
14191;SDS011;7177;48.572;7.838;2023-05-07T14:54:27;4.60;;;3.00;;
14191;SDS011;7177;48.572;7.838;2023-05-07T14:56:53;3.47;;;3.17;;
14191;SDS011;7177;48.572;7.838;2023-05-07T14:59:20;4.40;;;2.90;;
14191;SDS011;7177;48.572;7.838;2023-05-07T15:01:46;3.60;;;2.60;;
14191;SDS011;7177;48.572;7.838;2023-05-07T15:04:12;4.23;;;3.00;;
14191;SDS011;7177;48.572;7.838;2023-05-07T15:06:37;4.23;;;2.40;;
14191;SDS011;7177;48.572;7.838;2023-05-07T15:09:03;4.00;;;2.63;;